createdAt,value
2022-08-19T00:01:32.863Z,16.05
2022-08-19T00:04:04.550Z,16.95
2022-08-19T00:06:30.930Z,16.35
2022-08-19T00:08:57.317Z,15.80
2022-08-19T00:11:26.026Z,16.25
2022-08-19T00:13:52.802Z,16.77
2022-08-19T00:16:19.185Z,16.20
2022-08-19T00:18:51.937Z,16.75
2022-08-19T00:21:18.397Z,15.90
2022-08-19T00:23:45.705Z,15.82
2022-08-19T00:26:12.021Z,16.67
2022-08-19T00:28:38.326Z,16.40
2022-08-19T00:31:04.770Z,17.00
2022-08-19T00:33:31.299Z,15.82
2022-08-19T00:35:59.573Z,15.68
2022-08-19T00:38:37.267Z,16.10
2022-08-19T00:41:03.778Z,16.30
2022-08-19T00:43:30.106Z,15.10
2022-08-19T00:45:56.584Z,15.80
2022-08-19T00:48:22.965Z,15.15
2022-08-19T00:50:52.284Z,14.93
2022-08-19T00:53:18.846Z,15.27
2022-08-19T00:55:45.301Z,14.85
2022-08-19T00:58:12.197Z,15.63
2022-08-19T01:00:38.594Z,15.32
2022-08-19T01:03:05.499Z,15.85
2022-08-19T01:05:32.275Z,16.35
2022-08-19T01:07:58.866Z,15.75
2022-08-19T01:10:25.275Z,15.38
2022-08-19T01:12:51.957Z,15.27
2022-08-19T01:15:18.497Z,15.90
2022-08-19T01:17:45.072Z,15.02
2022-08-19T01:20:11.488Z,15.18
2022-08-19T01:22:37.882Z,15.75
2022-08-19T01:25:06.222Z,15.52
2022-08-19T01:27:43.917Z,16.67
2022-08-19T01:30:10.461Z,15.18
2022-08-19T01:32:36.842Z,15.32
2022-08-19T01:35:03.253Z,15.05
2022-08-19T01:37:29.674Z,14.93
2022-08-19T01:39:56.068Z,15.48
2022-08-19T01:42:22.618Z,14.48
2022-08-19T01:44:56.814Z,14.70
2022-08-19T01:47:23.176Z,15.02
2022-08-19T01:49:49.565Z,15.20
2022-08-19T01:52:15.955Z,15.57
2022-08-19T01:54:42.347Z,15.23
2022-08-19T01:57:08.759Z,15.35
2022-08-19T01:59:35.406Z,15.30
2022-08-19T02:02:01.797Z,15.30
2022-08-19T02:04:28.087Z,14.05
2022-08-19T02:06:54.482Z,15.60
2022-08-19T02:09:21.089Z,16.02
2022-08-19T02:11:47.513Z,13.85
2022-08-19T02:14:13.893Z,14.23
2022-08-19T02:16:40.422Z,14.45
2022-08-19T02:19:06.957Z,15.45
2022-08-19T02:21:33.287Z,14.32
2022-08-19T02:23:59.719Z,16.05
2022-08-19T02:26:26.046Z,15.07
2022-08-19T02:28:52.434Z,14.80
2022-08-19T02:31:18.771Z,15.02
2022-08-19T02:33:45.377Z,15.40
2022-08-19T02:36:12.018Z,14.60
2022-08-19T02:38:38.350Z,14.68
2022-08-19T02:41:04.720Z,14.23
2022-08-19T02:43:32.185Z,14.73
2022-08-19T02:46:00.734Z,15.38
2022-08-19T02:48:27.130Z,14.63
2022-08-19T02:50:53.789Z,14.68
2022-08-19T02:53:20.233Z,15.18
2022-08-19T02:55:46.548Z,14.52
2022-08-19T02:58:12.990Z,14.80
2022-08-19T03:00:41.606Z,14.82
2022-08-19T03:03:08.622Z,16.23
2022-08-19T03:05:47.938Z,14.52
2022-08-19T03:08:21.531Z,15.20
2022-08-19T03:10:47.971Z,15.18
2022-08-19T03:13:14.295Z,14.77
2022-08-19T03:15:40.569Z,14.52
2022-08-19T03:18:06.910Z,14.77
2022-08-19T03:20:35.066Z,15.20
2022-08-19T03:23:01.560Z,15.27
2022-08-19T03:25:27.945Z,14.82
2022-08-19T03:27:54.293Z,14.65
2022-08-19T03:30:23.328Z,14.75
2022-08-19T03:32:53.539Z,13.88
2022-08-19T03:35:23.745Z,14.98
2022-08-19T03:37:50.214Z,15.30
2022-08-19T03:40:16.794Z,14.60
2022-08-19T03:42:59.534Z,15.27
2022-08-19T03:45:26.002Z,15.13
2022-08-19T03:47:55.063Z,14.73
2022-08-19T03:50:21.386Z,15.27
2022-08-19T03:52:47.771Z,15.25
2022-08-19T03:55:14.220Z,14.65
2022-08-19T03:57:40.622Z,14.45
2022-08-19T04:00:13.590Z,14.35
2022-08-19T04:02:40.510Z,15.27
2022-08-19T04:05:07.383Z,14.40
2022-08-19T04:07:33.938Z,14.52
2022-08-19T04:10:00.329Z,14.98
2022-08-19T04:12:27.146Z,15.25
2022-08-19T04:14:53.646Z,14.85
2022-08-19T04:17:19.962Z,15.32
2022-08-19T04:19:46.490Z,14.85
2022-08-19T04:22:12.822Z,14.68
2022-08-19T04:24:39.171Z,15.05
2022-08-19T04:27:05.934Z,14.23
2022-08-19T04:29:32.250Z,13.95
2022-08-19T04:31:58.761Z,15.20
2022-08-19T04:34:25.261Z,15.48
2022-08-19T04:36:51.657Z,15.10
2022-08-19T04:39:18.251Z,15.30
2022-08-19T04:41:44.878Z,14.98
2022-08-19T04:44:11.226Z,15.15
2022-08-19T04:46:37.582Z,15.60
2022-08-19T04:49:13.166Z,14.90
2022-08-19T04:51:40.169Z,14.13
2022-08-19T04:54:06.610Z,15.68
2022-08-19T04:56:32.965Z,15.25
2022-08-19T04:58:59.302Z,15.13
2022-08-19T05:01:25.715Z,14.45
2022-08-19T05:03:52.098Z,15.25
2022-08-19T05:06:18.479Z,15.52
2022-08-19T05:08:44.827Z,15.30
2022-08-19T05:11:11.386Z,15.30
2022-08-19T05:13:40.581Z,15.05
2022-08-19T05:16:08.342Z,15.70
2022-08-19T05:18:34.650Z,14.93
2022-08-19T05:21:00.979Z,14.95
2022-08-19T05:23:27.463Z,15.95
2022-08-19T05:25:53.979Z,15.82
2022-08-19T05:28:20.504Z,15.45
2022-08-19T05:30:47.770Z,16.10
2022-08-19T05:33:14.086Z,14.77
2022-08-19T05:35:40.426Z,15.88
2022-08-19T05:38:06.814Z,15.70
2022-08-19T05:40:33.166Z,16.38
2022-08-19T05:42:59.501Z,14.75
2022-08-19T05:45:25.841Z,16.38
2022-08-19T05:47:52.168Z,15.27
2022-08-19T05:50:18.567Z,16.33
2022-08-19T05:52:45.955Z,15.98
2022-08-19T05:55:17.155Z,15.18
2022-08-19T06:00:27.751Z,15.63
2022-08-19T06:02:54.246Z,16.73
2022-08-19T06:05:21.564Z,16.90
2022-08-19T06:07:48.125Z,17.05
2022-08-19T06:10:14.682Z,15.40
2022-08-19T06:12:41.127Z,17.48
2022-08-19T06:15:07.665Z,18.27
2022-08-19T06:17:34.131Z,21.48
2022-08-19T06:20:00.804Z,20.65
2022-08-19T06:22:27.133Z,21.27
2022-08-19T06:24:53.838Z,20.38
2022-08-19T06:27:20.327Z,21.25
2022-08-19T06:29:46.788Z,22.10
2022-08-19T06:32:13.298Z,22.50
2022-08-19T06:34:39.689Z,23.08
2022-08-19T06:37:06.073Z,24.50
2022-08-19T06:39:32.464Z,24.30
2022-08-19T06:42:00.338Z,24.30
2022-08-19T06:44:26.710Z,23.27
2022-08-19T06:46:55.009Z,23.77
2022-08-19T06:49:21.550Z,23.85
2022-08-19T06:51:47.934Z,23.58
2022-08-19T06:54:19.028Z,24.45
2022-08-19T06:56:46.312Z,23.25
2022-08-19T06:59:12.604Z,24.27
2022-08-19T07:04:22.947Z,23.25
2022-08-19T07:06:55.013Z,23.48
2022-08-19T07:09:22.015Z,23.90
2022-08-19T07:11:48.554Z,23.02
2022-08-19T07:14:19.292Z,22.45
2022-08-19T07:16:46.138Z,23.38
2022-08-19T07:19:16.093Z,24.33
2022-08-19T07:21:42.786Z,23.40
2022-08-19T07:24:09.222Z,23.80
2022-08-19T07:26:35.658Z,24.88
2022-08-19T07:29:02.034Z,24.27
2022-08-19T07:31:31.069Z,25.92
2022-08-19T07:33:57.749Z,26.10
2022-08-19T07:36:26.170Z,27.02
2022-08-19T07:38:52.562Z,25.17
2022-08-19T07:41:18.873Z,25.75
2022-08-19T07:43:46.794Z,27.20
2022-08-19T07:46:13.161Z,26.58
2022-08-19T07:48:39.542Z,25.25
2022-08-19T07:51:05.935Z,25.88
2022-08-19T07:53:35.617Z,25.55
2022-08-19T07:56:05.572Z,27.02
2022-08-19T07:58:31.863Z,25.77
2022-08-19T08:00:58.333Z,26.13
2022-08-19T08:03:24.766Z,26.52
2022-08-19T08:05:51.237Z,26.65
2022-08-19T08:08:18.064Z,26.17
2022-08-19T08:10:44.478Z,26.05
2022-08-19T08:13:19.555Z,26.25
2022-08-19T08:15:45.870Z,27.42
2022-08-19T08:18:12.307Z,25.73
2022-08-19T08:20:38.736Z,26.33
2022-08-19T08:23:05.328Z,28.13
2022-08-19T08:25:32.492Z,28.85
2022-08-19T08:28:00.705Z,30.65
2022-08-19T08:30:27.174Z,28.25
2022-08-19T08:32:57.848Z,29.35
2022-08-19T08:35:25.764Z,29.25
2022-08-19T08:37:52.638Z,29.42
2022-08-19T08:40:19.189Z,27.30
2022-08-19T08:42:45.659Z,96.15
2022-08-19T08:48:02.058Z,50.60
2022-08-19T08:50:28.588Z,48.33
2022-08-19T08:52:55.276Z,46.97
2022-08-19T08:55:21.922Z,52.55
2022-08-19T08:57:48.266Z,45.10
2022-08-19T09:00:15.390Z,56.90
2022-08-19T09:02:43.344Z,43.15
2022-08-19T09:05:10.423Z,41.28
2022-08-19T09:07:46.872Z,45.97
2022-08-19T09:10:13.678Z,43.97
2022-08-19T09:12:40.307Z,40.83
2022-08-19T09:15:09.358Z,42.72
2022-08-19T09:17:36.403Z,41.85
2022-08-19T09:20:02.930Z,43.35
2022-08-19T09:22:29.297Z,43.38
2022-08-19T09:24:55.792Z,42.97
2022-08-19T09:27:22.438Z,40.83
2022-08-19T09:30:09.080Z,42.38
2022-08-19T09:32:35.464Z,37.63
2022-08-19T09:35:01.838Z,41.10
2022-08-19T09:37:30.153Z,40.75
2022-08-19T09:39:56.516Z,40.08
2022-08-19T09:42:30.039Z,39.38
2022-08-19T09:44:57.089Z,38.72
2022-08-19T09:47:26.922Z,36.42
2022-08-19T09:52:55.520Z,38.70
2022-08-19T09:55:24.088Z,36.85
2022-08-19T09:57:50.577Z,36.00
2022-08-19T10:00:16.880Z,39.38
2022-08-19T10:02:43.337Z,37.33
2022-08-19T10:05:11.975Z,36.50
2022-08-19T10:07:38.421Z,38.25
2022-08-19T10:10:04.791Z,37.13
2022-08-19T10:12:31.137Z,37.55
2022-08-19T10:14:57.483Z,35.53
2022-08-19T10:17:26.760Z,38.30
2022-08-19T10:19:55.505Z,36.40
2022-08-19T10:22:22.384Z,36.65
2022-08-19T10:24:48.764Z,35.33
2022-08-19T10:27:15.221Z,37.80
2022-08-19T10:29:46.472Z,35.60
2022-08-19T10:32:13.061Z,37.83
2022-08-19T10:34:48.817Z,37.38
2022-08-19T10:37:15.785Z,35.97
2022-08-19T10:39:55.172Z,38.10
2022-08-19T10:42:22.158Z,37.40
2022-08-19T10:44:48.530Z,37.08
2022-08-19T10:47:17.370Z,37.90
2022-08-19T10:49:51.698Z,39.95
2022-08-19T10:52:18.945Z,39.45
2022-08-19T10:54:47.752Z,37.33
2022-08-19T10:57:14.274Z,41.42
2022-08-19T10:59:41.938Z,40.45
2022-08-19T11:02:08.302Z,40.53
2022-08-19T11:04:35.743Z,39.65
2022-08-19T11:07:02.362Z,38.53
2022-08-19T11:09:34.036Z,37.92
2022-08-19T11:12:02.975Z,39.72
2022-08-19T11:14:31.425Z,38.92
2022-08-19T11:17:00.641Z,38.03
2022-08-19T11:19:27.265Z,42.08
2022-08-19T11:24:38.181Z,40.95
2022-08-19T11:27:04.816Z,42.17
2022-08-19T11:29:31.173Z,41.00
2022-08-19T11:31:57.542Z,43.25
2022-08-19T11:34:23.914Z,46.17
2022-08-19T11:36:50.278Z,40.83
2022-08-19T11:39:16.643Z,40.30
2022-08-19T11:41:43.018Z,38.38
2022-08-19T11:44:09.504Z,38.75
2022-08-19T11:46:35.766Z,38.72
2022-08-19T11:49:02.182Z,38.55
2022-08-19T11:51:28.527Z,37.42
2022-08-19T11:53:54.892Z,36.55
2022-08-19T11:56:21.590Z,39.20
2022-08-19T11:58:48.016Z,37.58
2022-08-19T12:01:14.419Z,37.35
2022-08-19T12:03:40.810Z,37.33
2022-08-19T12:06:07.316Z,38.90
2022-08-19T12:08:33.771Z,40.05
2022-08-19T12:11:03.127Z,38.00
2022-08-19T12:16:13.765Z,37.53
2022-08-19T12:18:43.223Z,38.47
2022-08-19T12:21:09.624Z,37.92
2022-08-19T12:23:36.222Z,36.15
2022-08-19T12:26:02.655Z,37.78
2022-08-19T12:28:28.948Z,37.97
2022-08-19T12:30:55.273Z,38.05
2022-08-19T12:33:21.681Z,38.50
2022-08-19T12:35:48.310Z,36.88
2022-08-19T12:38:14.679Z,36.92
2022-08-19T12:40:41.024Z,37.08
2022-08-19T12:43:07.666Z,37.20
2022-08-19T12:45:34.241Z,36.80
2022-08-19T12:48:01.269Z,38.55
2022-08-19T12:50:47.611Z,36.45
2022-08-19T12:53:13.981Z,36.83
2022-08-19T12:55:40.382Z,36.65
2022-08-19T12:58:06.832Z,35.65
2022-08-19T13:00:33.186Z,37.08
2022-08-19T13:02:59.603Z,34.85
2022-08-19T13:05:25.951Z,34.97
2022-08-19T13:07:52.367Z,37.45
2022-08-19T13:10:18.712Z,35.42
2022-08-19T13:12:45.030Z,36.13
2022-08-19T13:15:11.721Z,37.88
2022-08-19T13:17:38.018Z,37.50
2022-08-19T13:20:04.451Z,36.95
2022-08-19T13:22:30.853Z,37.33
2022-08-19T13:24:57.170Z,36.03
2022-08-19T13:27:23.570Z,36.28
2022-08-19T13:29:49.986Z,34.90
2022-08-19T13:32:18.633Z,36.55
2022-08-19T13:34:45.207Z,34.13
2022-08-19T13:37:11.601Z,35.95
2022-08-19T13:39:37.981Z,36.20
2022-08-19T13:42:04.378Z,35.08
2022-08-19T13:44:31.083Z,36.42
2022-08-19T13:46:57.741Z,34.25
2022-08-19T13:49:24.166Z,35.78
2022-08-19T13:51:50.546Z,34.47
2022-08-19T13:54:17.011Z,35.08
2022-08-19T13:56:43.671Z,33.88
2022-08-19T13:59:10.322Z,33.95
2022-08-19T14:01:36.634Z,35.28
2022-08-19T14:04:03.055Z,36.50
2022-08-19T14:06:29.409Z,35.13
2022-08-19T14:08:55.822Z,36.10
2022-08-19T14:11:22.214Z,34.75
2022-08-19T14:13:48.520Z,35.15
2022-08-19T14:16:14.872Z,35.47
2022-08-19T14:18:41.159Z,34.83
2022-08-19T14:21:07.587Z,35.30
2022-08-19T14:23:33.945Z,33.63
2022-08-19T14:26:03.372Z,33.60
2022-08-19T14:28:30.010Z,33.65
2022-08-19T14:30:56.680Z,34.95
2022-08-19T14:33:23.136Z,33.90
2022-08-19T14:35:59.685Z,34.20
2022-08-19T14:38:31.412Z,33.88
2022-08-19T14:40:58.191Z,33.92
2022-08-19T14:43:24.602Z,33.47
2022-08-19T14:45:51.038Z,32.15
2022-08-19T14:48:19.463Z,32.55
2022-08-19T14:50:46.678Z,32.95
2022-08-19T14:53:13.035Z,35.40
2022-08-19T14:55:39.502Z,32.88
2022-08-19T14:58:08.885Z,34.42
2022-08-19T15:00:36.835Z,32.90
2022-08-19T15:03:03.296Z,33.28
2022-08-19T15:05:29.616Z,32.30
2022-08-19T15:07:56.084Z,33.15
2022-08-19T15:10:22.575Z,32.75
2022-08-19T15:12:51.703Z,32.28
2022-08-19T15:15:21.412Z,31.80
2022-08-19T15:17:47.739Z,32.85
2022-08-19T15:20:14.077Z,32.40
2022-08-19T15:22:40.489Z,32.22
2022-08-19T15:25:06.827Z,33.05
2022-08-19T15:27:33.487Z,33.05
2022-08-19T15:30:01.580Z,32.47
2022-08-19T15:32:28.172Z,32.33
2022-08-19T15:34:59.503Z,32.80
2022-08-19T15:37:25.961Z,32.53
2022-08-19T15:39:52.420Z,31.42
2022-08-19T15:42:28.142Z,32.20
2022-08-19T15:44:56.627Z,32.33
2022-08-19T15:47:26.999Z,33.85
2022-08-19T15:50:01.149Z,31.52
2022-08-19T15:52:27.922Z,33.90
2022-08-19T15:54:54.286Z,32.63
2022-08-19T15:57:20.736Z,32.25
2022-08-19T16:02:37.435Z,33.28
2022-08-19T16:05:03.802Z,31.77
2022-08-19T16:07:30.182Z,33.28
2022-08-19T16:09:56.668Z,32.42
2022-08-19T16:12:23.090Z,31.70
2022-08-19T16:14:49.741Z,32.53
2022-08-19T16:17:16.180Z,31.73
2022-08-19T16:19:42.510Z,33.15
2022-08-19T16:22:08.955Z,33.00
2022-08-19T16:24:35.306Z,32.92
2022-08-19T16:27:01.993Z,32.22
2022-08-19T16:29:34.164Z,32.13
2022-08-19T16:32:05.666Z,32.25
2022-08-19T16:34:32.039Z,33.65
2022-08-19T16:37:00.019Z,32.75
2022-08-19T16:39:26.399Z,33.42
2022-08-19T16:41:52.870Z,33.50
2022-08-19T16:44:19.409Z,31.75
2022-08-19T16:46:45.930Z,31.45
2022-08-19T16:49:20.970Z,31.65
2022-08-19T16:52:03.674Z,32.25
2022-08-19T16:54:32.578Z,32.08
2022-08-19T16:56:59.406Z,32.55
2022-08-19T16:59:25.810Z,33.30
2022-08-19T17:01:52.233Z,32.22
2022-08-19T17:04:18.637Z,33.15
2022-08-19T17:06:45.058Z,30.85
2022-08-19T17:09:11.569Z,31.80
2022-08-19T17:11:37.853Z,31.23
2022-08-19T17:14:04.299Z,33.38
2022-08-19T17:16:30.653Z,32.42
2022-08-19T17:18:56.966Z,31.58
2022-08-19T17:21:23.634Z,32.33
2022-08-19T17:23:50.021Z,31.85
2022-08-19T17:26:18.170Z,33.10
2022-08-19T17:28:44.943Z,32.45
2022-08-19T17:31:11.395Z,31.75
2022-08-19T17:33:41.142Z,30.65
2022-08-19T17:36:07.790Z,31.63
2022-08-19T17:38:34.298Z,32.72
2022-08-19T17:41:00.833Z,31.17
2022-08-19T17:43:32.764Z,33.00
2022-08-19T17:46:00.514Z,32.70
2022-08-19T17:48:26.891Z,32.22
2022-08-19T17:50:53.230Z,30.42
2022-08-19T17:53:21.058Z,29.20
2022-08-19T17:55:48.041Z,31.00
2022-08-19T17:58:14.597Z,30.73
2022-08-19T18:00:53.871Z,29.77
2022-08-19T18:03:21.409Z,29.95
2022-08-19T18:05:47.940Z,30.20
2022-08-19T18:08:14.381Z,31.10
2022-08-19T18:10:40.702Z,30.25
2022-08-19T18:15:57.773Z,30.45
2022-08-19T18:18:24.206Z,29.42
2022-08-19T18:20:50.604Z,29.25
2022-08-19T18:23:43.804Z,28.95
2022-08-19T18:26:03.665Z,29.52
2022-08-19T18:28:30.100Z,29.35
2022-08-19T18:30:56.723Z,29.02
2022-08-19T18:33:23.231Z,29.20
2022-08-19T18:35:49.565Z,27.63
2022-08-19T18:38:16.082Z,27.02
2022-08-19T18:40:42.449Z,27.38
2022-08-19T18:43:10.640Z,27.67
2022-08-19T18:45:37.022Z,29.08
2022-08-19T18:48:04.945Z,27.30
2022-08-19T18:50:31.285Z,27.05
2022-08-19T18:52:57.670Z,27.70
2022-08-19T18:55:24.743Z,26.38
2022-08-19T18:57:51.126Z,27.38
2022-08-19T19:00:18.954Z,26.50
2022-08-19T19:02:45.424Z,24.25
2022-08-19T19:05:11.901Z,27.13
2022-08-19T19:07:38.914Z,26.67
2022-08-19T19:10:05.295Z,26.23
2022-08-19T19:12:31.671Z,27.80
2022-08-19T19:14:57.949Z,27.10
2022-08-19T19:17:24.337Z,26.55
2022-08-19T19:19:50.923Z,25.60
2022-08-19T19:22:17.295Z,26.73
2022-08-19T19:24:43.674Z,26.83
2022-08-19T19:27:10.130Z,25.38
2022-08-19T19:29:36.471Z,24.80
2022-08-19T19:32:02.796Z,24.95
2022-08-19T19:34:30.221Z,26.08
2022-08-19T19:36:57.062Z,25.52
2022-08-19T19:39:42.946Z,24.75
2022-08-19T19:44:53.834Z,25.40
2022-08-19T19:47:20.597Z,24.23
2022-08-19T19:50:10.577Z,26.05
2022-08-19T19:52:33.372Z,25.38
2022-08-19T19:54:59.758Z,25.65
2022-08-19T19:57:26.221Z,25.83
2022-08-19T19:59:52.855Z,25.17
2022-08-19T20:02:19.342Z,25.88
2022-08-19T20:04:45.699Z,24.55
2022-08-19T20:07:12.229Z,25.33
2022-08-19T20:09:58.349Z,24.02
2022-08-19T20:12:24.933Z,24.73
2022-08-19T20:14:51.477Z,23.58
2022-08-19T20:17:18.125Z,24.40
2022-08-19T20:19:44.515Z,24.13
2022-08-19T20:22:10.922Z,25.15
2022-08-19T20:24:37.415Z,24.08
2022-08-19T20:27:03.756Z,22.85
2022-08-19T20:29:39.628Z,23.75
2022-08-19T20:32:08.221Z,24.70
2022-08-19T20:34:34.600Z,22.42
2022-08-19T20:37:01.043Z,24.63
2022-08-19T20:39:27.671Z,24.70
2022-08-19T20:41:54.055Z,22.70
2022-08-19T20:44:20.454Z,23.48
2022-08-19T20:46:54.527Z,24.67
2022-08-19T20:49:22.623Z,23.70
2022-08-19T20:54:37.483Z,22.83
2022-08-19T20:57:03.894Z,23.00
2022-08-19T20:59:30.321Z,22.58
2022-08-19T21:01:56.627Z,23.08
2022-08-19T21:04:22.958Z,21.98
2022-08-19T21:06:49.625Z,23.65
2022-08-19T21:09:16.653Z,23.48
2022-08-19T21:11:44.036Z,22.70
2022-08-19T21:14:10.431Z,22.83
2022-08-19T21:16:36.862Z,22.70
2022-08-19T21:19:03.187Z,21.80
2022-08-19T21:21:29.530Z,21.98
2022-08-19T21:23:55.850Z,22.02
2022-08-19T21:26:22.233Z,21.60
2022-08-19T21:28:48.666Z,22.10
2022-08-19T21:31:15.102Z,22.25
2022-08-19T21:33:41.534Z,23.05
2022-08-19T21:36:07.871Z,20.30
2022-08-19T21:38:34.234Z,21.85
2022-08-19T21:41:01.333Z,22.52
2022-08-19T21:43:32.185Z,20.75
2022-08-19T21:45:58.680Z,22.30
2022-08-19T21:48:25.050Z,22.25
2022-08-19T21:50:51.579Z,20.83
2022-08-19T21:53:17.923Z,21.13
2022-08-19T21:55:44.341Z,20.98
2022-08-19T21:58:10.729Z,20.88
2022-08-19T22:00:37.487Z,21.85
2022-08-19T22:03:05.383Z,19.35
2022-08-19T22:05:31.846Z,20.33
2022-08-19T22:07:58.495Z,21.52
2022-08-19T22:10:29.194Z,21.35
2022-08-19T22:12:55.671Z,20.35
2022-08-19T22:15:22.903Z,20.45
2022-08-19T22:17:49.384Z,20.35
2022-08-19T22:20:15.875Z,20.63
2022-08-19T22:22:42.259Z,20.85
2022-08-19T22:25:08.545Z,19.33
2022-08-19T22:27:34.912Z,20.52
2022-08-19T22:30:01.601Z,20.08
2022-08-19T22:32:30.394Z,19.92
2022-08-19T22:34:57.817Z,20.60
2022-08-19T22:37:24.178Z,19.33
2022-08-19T22:39:50.661Z,19.58
2022-08-19T22:42:17.381Z,20.08
2022-08-19T22:44:44.001Z,19.58
2022-08-19T22:47:10.333Z,20.40
2022-08-19T22:49:36.865Z,19.05
2022-08-19T22:52:03.174Z,19.35
2022-08-19T22:54:29.515Z,19.98
2022-08-19T22:56:55.946Z,19.88
2022-08-19T22:59:22.390Z,19.67
2022-08-19T23:01:48.756Z,18.98
2022-08-19T23:04:15.086Z,20.00
2022-08-19T23:06:42.200Z,20.02
2022-08-19T23:09:08.761Z,19.70
2022-08-19T23:11:35.193Z,19.42
2022-08-19T23:14:01.845Z,18.83
2022-08-19T23:16:28.197Z,19.80
2022-08-19T23:18:56.122Z,19.38
2022-08-19T23:21:22.565Z,19.23
2022-08-19T23:23:48.983Z,18.67
2022-08-19T23:26:15.372Z,18.70
2022-08-19T23:28:41.713Z,19.50
2022-08-19T23:31:08.027Z,19.83
2022-08-19T23:33:51.634Z,19.60
2022-08-19T23:36:18.297Z,19.88
2022-08-19T23:38:44.682Z,18.15
2022-08-19T23:41:11.055Z,19.27
2022-08-19T23:43:37.351Z,20.02
2022-08-19T23:46:10.524Z,18.00
2022-08-19T23:48:37.118Z,19.27
2022-08-19T23:51:03.626Z,19.30
2022-08-19T23:53:30.026Z,19.27
2022-08-19T23:55:56.566Z,19.42
2022-08-19T23:58:22.982Z,19.08
